createdAt,value
2023-03-18T00:00:32.966Z,0.00
2023-03-18T00:01:32.502Z,0.00
2023-03-18T00:02:32.578Z,0.00
2023-03-18T00:03:32.562Z,0.00
2023-03-18T00:04:32.475Z,0.00
2023-03-18T00:05:32.499Z,0.00
2023-03-18T00:06:32.473Z,0.00
2023-03-18T00:07:32.473Z,0.00
2023-03-18T00:08:32.465Z,0.00
2023-03-18T00:09:32.457Z,0.00
2023-03-18T00:10:32.631Z,0.00
2023-03-18T00:11:32.410Z,0.00
2023-03-18T00:12:32.428Z,0.00
2023-03-18T00:13:32.367Z,0.00
2023-03-18T00:14:32.417Z,0.00
2023-03-18T00:15:32.363Z,0.00
2023-03-18T00:16:32.380Z,0.00
2023-03-18T00:17:32.353Z,0.00
2023-03-18T00:18:32.353Z,0.00
2023-03-18T00:19:32.317Z,0.00
2023-03-18T00:20:32.760Z,0.00
2023-03-18T00:21:32.349Z,0.00
2023-03-18T00:22:32.267Z,0.00
2023-03-18T00:23:32.278Z,0.00
2023-03-18T00:24:32.268Z,0.00
2023-03-18T00:25:32.265Z,0.00
2023-03-18T00:26:32.296Z,0.00
2023-03-18T00:27:32.248Z,0.00
2023-03-18T00:28:32.223Z,0.00
2023-03-18T00:29:32.202Z,0.00
2023-03-18T00:30:32.358Z,0.00
2023-03-18T00:31:32.245Z,0.00
2023-03-18T00:32:32.237Z,0.00
2023-03-18T00:33:32.141Z,0.00
2023-03-18T00:34:32.163Z,0.00
2023-03-18T00:35:32.110Z,0.00
2023-03-18T00:36:32.161Z,0.00
2023-03-18T00:37:32.115Z,0.00
2023-03-18T00:38:32.243Z,0.00
2023-03-18T00:39:32.085Z,0.00
2023-03-18T00:40:32.270Z,0.00
2023-03-18T00:41:32.078Z,0.00
2023-03-18T00:42:32.045Z,0.00
2023-03-18T00:43:32.045Z,0.00
2023-03-18T00:44:32.088Z,0.00
2023-03-18T00:45:32.005Z,0.00
2023-03-18T00:46:32.018Z,0.00
2023-03-18T00:47:31.987Z,0.00
2023-03-18T00:48:32.041Z,0.00
2023-03-18T00:49:32.012Z,0.00
2023-03-18T00:50:32.247Z,0.00
2023-03-18T00:51:31.948Z,0.00
2023-03-18T00:52:32.420Z,0.00
2023-03-18T00:53:31.936Z,0.00
2023-03-18T00:54:31.950Z,0.00
2023-03-18T00:55:31.962Z,0.00
2023-03-18T00:56:31.916Z,0.00
2023-03-18T00:57:31.888Z,0.00
2023-03-18T00:58:31.903Z,0.00
2023-03-18T00:59:31.886Z,0.00
2023-03-18T01:00:32.276Z,0.00
2023-03-18T01:01:31.824Z,0.00
2023-03-18T01:02:31.834Z,0.00
2023-03-18T01:03:31.856Z,0.00
2023-03-18T01:04:31.820Z,0.00
2023-03-18T01:05:31.796Z,0.00
2023-03-18T01:06:31.808Z,0.00
2023-03-18T01:07:31.797Z,0.00
2023-03-18T01:08:31.753Z,0.00
2023-03-18T01:09:31.787Z,0.00
2023-03-18T01:10:32.008Z,0.00
2023-03-18T01:11:31.763Z,0.00
2023-03-18T01:12:31.786Z,0.00
2023-03-18T01:13:31.708Z,0.00
2023-03-18T01:14:31.707Z,0.00
2023-03-18T01:15:31.664Z,0.00
2023-03-18T01:16:31.748Z,0.00
2023-03-18T01:17:31.644Z,0.00
2023-03-18T01:18:31.700Z,0.00
2023-03-18T01:19:31.626Z,0.00
2023-03-18T01:20:31.912Z,0.00
2023-03-18T01:21:31.606Z,0.00
2023-03-18T01:22:31.599Z,0.00
2023-03-18T01:23:31.604Z,0.00
2023-03-18T01:24:31.608Z,0.00
2023-03-18T01:25:31.562Z,0.00
2023-03-18T01:26:31.557Z,0.00
2023-03-18T01:27:31.577Z,0.00
2023-03-18T01:28:31.510Z,0.00
2023-03-18T01:29:31.591Z,0.00
2023-03-18T01:30:31.755Z,0.00
2023-03-18T01:31:31.536Z,0.00
2023-03-18T01:32:31.549Z,0.00
2023-03-18T01:33:31.507Z,0.00
2023-03-18T01:34:31.450Z,0.00
2023-03-18T01:35:31.509Z,0.00
2023-03-18T01:36:31.456Z,0.00
2023-03-18T01:37:31.452Z,0.00
2023-03-18T01:38:31.415Z,0.00
2023-03-18T01:39:31.412Z,0.00
2023-03-18T01:40:31.681Z,0.00
2023-03-18T01:41:31.423Z,0.00
2023-03-18T01:42:31.385Z,0.00
2023-03-18T01:43:31.360Z,0.00
2023-03-18T01:44:31.360Z,0.00
2023-03-18T01:45:31.400Z,0.00
2023-03-18T01:46:31.356Z,0.00
2023-03-18T01:47:31.383Z,0.00
2023-03-18T01:48:31.325Z,0.00
2023-03-18T01:49:31.306Z,0.00
2023-03-18T01:50:31.528Z,0.00
2023-03-18T01:51:31.294Z,0.00
2023-03-18T01:52:31.263Z,0.00
2023-03-18T01:53:31.295Z,0.00
2023-03-18T01:54:31.270Z,0.00
2023-03-18T01:55:31.207Z,0.00
2023-03-18T01:56:31.192Z,0.00
2023-03-18T01:57:31.192Z,0.00
2023-03-18T01:58:31.204Z,0.00
2023-03-18T01:59:31.206Z,0.00
2023-03-18T02:00:31.408Z,0.00
2023-03-18T02:01:31.234Z,0.00
2023-03-18T02:02:31.140Z,0.00
2023-03-18T02:03:31.135Z,0.00
2023-03-18T02:04:31.171Z,0.00
2023-03-18T02:05:31.127Z,0.00
2023-03-18T02:06:31.099Z,0.00
2023-03-18T02:07:31.069Z,0.00
2023-03-18T02:08:31.081Z,0.00
2023-03-18T02:09:31.089Z,0.00
2023-03-18T02:10:31.267Z,0.00
2023-03-18T02:11:31.028Z,0.00
2023-03-18T02:12:31.072Z,0.00
2023-03-18T02:13:31.041Z,0.00
2023-03-18T02:14:31.002Z,0.00
2023-03-18T02:15:31.009Z,0.00
2023-03-18T02:16:31.011Z,0.00
2023-03-18T02:17:30.989Z,0.00
2023-03-18T02:18:31.018Z,0.00
2023-03-18T02:19:30.931Z,0.00
2023-03-18T02:20:31.256Z,0.00
2023-03-18T02:21:30.970Z,0.00
2023-03-18T02:22:30.937Z,0.00
2023-03-18T02:23:30.918Z,0.00
2023-03-18T02:24:30.918Z,0.00
2023-03-18T02:25:30.908Z,0.00
2023-03-18T02:26:30.854Z,0.00
2023-03-18T02:27:30.902Z,0.00
2023-03-18T02:28:30.848Z,0.00
2023-03-18T02:29:30.821Z,0.00
2023-03-18T02:30:31.109Z,0.00
2023-03-18T02:31:30.865Z,0.00
2023-03-18T02:32:30.850Z,0.00
2023-03-18T02:33:30.808Z,0.00
2023-03-18T02:34:30.766Z,0.00
2023-03-18T02:35:30.834Z,0.00
2023-03-18T02:36:30.747Z,0.00
2023-03-18T02:37:30.776Z,0.00
2023-03-18T02:38:30.723Z,0.00
2023-03-18T02:39:30.708Z,0.00
2023-03-18T02:40:30.953Z,0.00
2023-03-18T02:41:30.685Z,0.00
2023-03-18T02:42:30.698Z,0.00
2023-03-18T02:43:30.742Z,0.00
2023-03-18T02:44:30.673Z,0.00
2023-03-18T02:45:30.650Z,0.00
2023-03-18T02:46:30.639Z,0.00
2023-03-18T02:47:30.633Z,0.00
2023-03-18T02:48:30.648Z,0.00
2023-03-18T02:49:30.653Z,0.00
2023-03-18T02:50:30.868Z,0.00
2023-03-18T02:51:30.663Z,0.00
2023-03-18T02:52:30.577Z,0.00
2023-03-18T02:53:30.598Z,0.00
2023-03-18T02:54:30.530Z,0.00
2023-03-18T02:55:30.547Z,0.00
2023-03-18T02:56:30.514Z,0.00
2023-03-18T02:57:30.542Z,0.00
2023-03-18T02:58:30.544Z,0.00
2023-03-18T02:59:30.517Z,0.00
2023-03-18T03:00:30.809Z,0.00
2023-03-18T03:01:30.515Z,0.00
2023-03-18T03:02:30.572Z,0.00
2023-03-18T03:03:30.630Z,0.00
2023-03-18T03:04:30.472Z,0.00
2023-03-18T03:05:30.454Z,0.00
2023-03-18T03:06:30.419Z,0.00
2023-03-18T03:07:30.398Z,0.00
2023-03-18T03:08:30.409Z,0.00
2023-03-18T03:09:30.396Z,0.00
2023-03-18T03:10:30.626Z,0.00
2023-03-18T03:11:30.377Z,0.00
2023-03-18T03:12:30.352Z,0.00
2023-03-18T03:13:30.326Z,0.00
2023-03-18T03:14:30.330Z,0.00
2023-03-18T03:15:30.398Z,0.00
2023-03-18T03:16:30.353Z,0.00
2023-03-18T03:17:30.298Z,0.00
2023-03-18T03:18:30.287Z,0.00
2023-03-18T03:19:30.258Z,0.00
2023-03-18T03:20:30.641Z,0.00
2023-03-18T03:21:30.252Z,0.00
2023-03-18T03:22:30.313Z,0.00
2023-03-18T03:23:30.227Z,0.00
2023-03-18T03:24:30.236Z,0.00
2023-03-18T03:25:30.185Z,0.00
2023-03-18T03:26:30.186Z,0.00
2023-03-18T03:27:30.176Z,0.00
2023-03-18T03:28:30.204Z,0.00
2023-03-18T03:29:30.175Z,0.00
2023-03-18T03:30:30.316Z,0.00
2023-03-18T03:31:30.178Z,0.00
2023-03-18T03:32:30.165Z,0.00
2023-03-18T03:33:30.132Z,0.00
2023-03-18T03:34:30.121Z,0.00
2023-03-18T03:35:30.081Z,0.00
2023-03-18T03:36:30.069Z,0.00
2023-03-18T03:37:30.087Z,0.00
2023-03-18T03:38:30.076Z,0.00
2023-03-18T03:39:30.076Z,0.00
2023-03-18T03:40:30.288Z,0.00
2023-03-18T03:41:30.006Z,0.00
2023-03-18T03:42:30.019Z,0.00
2023-03-18T03:43:30.012Z,0.00
2023-03-18T03:44:30.008Z,0.00
2023-03-18T03:45:30.019Z,0.00
2023-03-18T03:46:30.002Z,0.00
2023-03-18T03:47:29.936Z,0.00
2023-03-18T03:48:29.948Z,0.00
2023-03-18T03:49:29.909Z,0.00
2023-03-18T03:50:30.089Z,0.00
2023-03-18T03:51:29.944Z,0.00
2023-03-18T03:52:29.897Z,0.00
2023-03-18T03:53:29.870Z,0.00
2023-03-18T03:54:29.878Z,0.00
2023-03-18T03:55:29.865Z,0.00
2023-03-18T03:56:29.845Z,0.00
2023-03-18T03:57:29.888Z,0.00
2023-03-18T03:58:29.829Z,0.00
2023-03-18T03:59:29.817Z,0.00
2023-03-18T04:00:30.101Z,0.00
2023-03-18T04:01:29.793Z,0.00
2023-03-18T04:02:29.782Z,0.00
2023-03-18T04:03:29.834Z,0.00
2023-03-18T04:04:29.817Z,0.00
2023-03-18T04:05:29.785Z,0.00
2023-03-18T04:06:29.712Z,0.00
2023-03-18T04:07:29.728Z,0.00
2023-03-18T04:08:29.716Z,0.00
2023-03-18T04:09:29.720Z,0.00
2023-03-18T04:10:29.741Z,0.00
2023-03-18T04:11:29.695Z,0.00
2023-03-18T04:12:29.658Z,0.00
2023-03-18T04:13:29.658Z,0.00
2023-03-18T04:14:29.661Z,0.00
2023-03-18T04:15:29.655Z,0.00
2023-03-18T04:16:29.707Z,0.00
2023-03-18T04:17:29.659Z,0.00
2023-03-18T04:18:29.607Z,0.00
2023-03-18T04:19:29.593Z,0.00
2023-03-18T04:20:30.011Z,0.00
2023-03-18T04:21:29.599Z,0.00
2023-03-18T04:22:29.572Z,0.00
2023-03-18T04:23:29.524Z,0.00
2023-03-18T04:24:29.536Z,0.00
2023-03-18T04:25:29.524Z,0.00
2023-03-18T04:26:29.509Z,0.00
2023-03-18T04:27:29.532Z,0.00
2023-03-18T04:28:29.475Z,0.00
2023-03-18T04:29:29.493Z,0.00
2023-03-18T04:30:29.516Z,0.00
2023-03-18T04:31:29.646Z,0.00
2023-03-18T04:32:29.500Z,0.00
2023-03-18T04:33:29.479Z,0.00
2023-03-18T04:34:29.413Z,0.00
2023-03-18T04:35:29.425Z,0.00
2023-03-18T04:36:29.408Z,0.00
2023-03-18T04:37:29.372Z,0.00
2023-03-18T04:38:29.377Z,0.00
2023-03-18T04:39:29.387Z,0.00
2023-03-18T04:40:29.457Z,0.00
2023-03-18T04:41:29.356Z,0.00
2023-03-18T04:42:29.335Z,0.00
2023-03-18T04:43:29.330Z,0.00
2023-03-18T04:44:29.298Z,0.00
2023-03-18T04:45:29.320Z,0.00
2023-03-18T04:46:29.325Z,0.00
2023-03-18T04:47:29.273Z,0.00
2023-03-18T04:48:29.240Z,0.00
2023-03-18T04:49:29.266Z,0.00
2023-03-18T04:50:29.436Z,0.00
2023-03-18T04:51:29.241Z,0.00
2023-03-18T04:52:29.210Z,0.00
2023-03-18T04:53:29.207Z,0.00
2023-03-18T04:54:29.182Z,0.00
2023-03-18T04:55:29.216Z,0.00
2023-03-18T04:56:29.214Z,0.00
2023-03-18T04:57:29.177Z,0.00
2023-03-18T04:58:29.135Z,0.00
2023-03-18T04:59:29.190Z,0.00
2023-03-18T05:00:29.118Z,0.00
2023-03-18T05:01:29.102Z,0.00
2023-03-18T05:02:29.157Z,0.00
2023-03-18T05:03:29.095Z,0.00
2023-03-18T05:04:29.071Z,0.00
2023-03-18T05:05:29.106Z,0.00
2023-03-18T05:06:29.071Z,0.00
2023-03-18T05:07:29.064Z,0.00
2023-03-18T05:08:29.013Z,0.00
2023-03-18T05:09:29.019Z,0.00
2023-03-18T05:10:29.018Z,0.00
2023-03-18T05:11:28.987Z,0.00
2023-03-18T05:12:28.973Z,0.00
2023-03-18T05:13:29.001Z,0.00
2023-03-18T05:14:28.971Z,0.00
2023-03-18T05:15:28.948Z,0.00
2023-03-18T05:16:28.982Z,5.62
2023-03-18T05:17:28.938Z,5.62
2023-03-18T05:18:28.912Z,5.62
2023-03-18T05:19:28.937Z,5.62
2023-03-18T05:20:28.944Z,5.62
2023-03-18T05:21:30.491Z,5.62
2023-03-18T05:22:28.907Z,11.25
2023-03-18T05:23:28.839Z,11.25
2023-03-18T05:24:28.828Z,11.25
2023-03-18T05:25:28.843Z,11.25
2023-03-18T05:26:28.844Z,11.25
2023-03-18T05:27:28.890Z,11.25
2023-03-18T05:28:28.844Z,11.25
2023-03-18T05:29:28.814Z,16.88
2023-03-18T05:30:28.789Z,16.88
2023-03-18T05:31:28.810Z,16.88
2023-03-18T05:32:28.845Z,16.88
2023-03-18T05:33:28.756Z,16.88
2023-03-18T05:34:28.797Z,22.50
2023-03-18T05:35:28.708Z,22.50
2023-03-18T05:36:28.713Z,22.50
2023-03-18T05:37:28.706Z,22.50
2023-03-18T05:38:28.685Z,22.50
2023-03-18T05:39:28.659Z,22.50
2023-03-18T05:40:28.708Z,16.88
2023-03-18T05:41:28.635Z,16.88
2023-03-18T05:42:28.651Z,22.50
2023-03-18T05:43:28.665Z,22.50
2023-03-18T05:44:28.623Z,22.50
2023-03-18T05:45:28.609Z,28.12
2023-03-18T05:46:28.754Z,28.12
2023-03-18T05:47:28.622Z,28.12
2023-03-18T05:48:28.594Z,33.75
2023-03-18T05:49:28.563Z,33.75
2023-03-18T05:50:28.545Z,33.75
2023-03-18T05:51:28.536Z,33.75
2023-03-18T05:52:28.570Z,39.38
2023-03-18T05:53:28.527Z,39.38
2023-03-18T05:54:28.501Z,39.38
2023-03-18T05:55:28.501Z,45.00
2023-03-18T05:56:28.481Z,45.00
2023-03-18T05:57:28.464Z,50.62
2023-03-18T05:58:28.521Z,56.25
2023-03-18T05:59:28.439Z,56.25
2023-03-18T06:00:28.418Z,56.25
2023-03-18T06:01:28.484Z,56.25
2023-03-18T06:02:28.423Z,56.25
2023-03-18T06:03:28.434Z,50.62
2023-03-18T06:04:28.423Z,50.62
2023-03-18T06:05:28.374Z,45.00
2023-03-18T06:06:28.403Z,50.62
2023-03-18T06:07:28.341Z,50.62
2023-03-18T06:08:28.352Z,50.62
2023-03-18T06:09:28.312Z,56.25
2023-03-18T06:10:28.316Z,67.50
2023-03-18T06:11:28.293Z,78.75
2023-03-18T06:12:28.348Z,90.00
2023-03-18T06:13:28.325Z,101.25
2023-03-18T06:14:28.260Z,118.12
2023-03-18T06:15:28.311Z,135.00
2023-03-18T06:16:28.291Z,140.62
2023-03-18T06:17:28.267Z,151.88
2023-03-18T06:18:28.292Z,146.25
2023-03-18T06:19:28.241Z,140.62
2023-03-18T06:20:28.209Z,140.62
2023-03-18T06:21:28.200Z,135.00
2023-03-18T06:22:28.176Z,118.12
2023-03-18T06:23:28.226Z,106.88
2023-03-18T06:24:28.155Z,95.62
2023-03-18T06:25:28.136Z,90.00
2023-03-18T06:26:28.159Z,84.38
2023-03-18T06:27:28.119Z,90.00
2023-03-18T06:28:28.147Z,95.62
2023-03-18T06:29:28.144Z,95.62
2023-03-18T06:30:28.110Z,101.25
2023-03-18T06:31:28.112Z,106.88
2023-03-18T06:32:28.219Z,112.50
2023-03-18T06:33:28.062Z,123.75
2023-03-18T06:34:28.055Z,135.00
2023-03-18T06:35:28.071Z,174.38
2023-03-18T06:36:28.051Z,213.75
2023-03-18T06:37:28.030Z,247.50
2023-03-18T06:38:28.013Z,275.62
2023-03-18T06:39:28.027Z,281.25
2023-03-18T06:40:27.981Z,281.25
2023-03-18T06:41:28.006Z,292.50
2023-03-18T06:42:27.953Z,298.12
2023-03-18T06:43:27.949Z,286.88
2023-03-18T06:44:27.953Z,286.88
2023-03-18T06:45:27.947Z,303.75
2023-03-18T06:46:27.953Z,286.88
2023-03-18T06:47:27.937Z,315.00
2023-03-18T06:48:27.896Z,326.25
2023-03-18T06:49:27.855Z,348.75
2023-03-18T06:50:27.894Z,382.50
2023-03-18T06:51:27.869Z,416.25
2023-03-18T06:52:27.833Z,421.88
2023-03-18T06:53:27.867Z,393.75
2023-03-18T06:54:27.814Z,399.38
2023-03-18T06:55:27.818Z,405.00
2023-03-18T06:56:27.802Z,427.50
2023-03-18T06:57:27.839Z,450.00
2023-03-18T06:58:27.796Z,466.88
2023-03-18T06:59:27.758Z,461.25
2023-03-18T07:00:27.817Z,478.12
2023-03-18T07:01:27.782Z,478.12
2023-03-18T07:02:27.765Z,450.00
2023-03-18T07:03:27.734Z,393.75
2023-03-18T07:04:27.834Z,331.88
2023-03-18T07:05:27.705Z,292.50
2023-03-18T07:06:27.678Z,281.25
2023-03-18T07:07:27.669Z,281.25
2023-03-18T07:08:27.672Z,286.88
2023-03-18T07:09:27.692Z,270.00
2023-03-18T07:10:27.683Z,258.75
2023-03-18T07:11:27.619Z,247.50
2023-03-18T07:12:27.618Z,236.25
2023-03-18T07:13:27.656Z,225.00
2023-03-18T07:14:27.592Z,213.75
2023-03-18T07:15:27.592Z,208.12
2023-03-18T07:16:27.661Z,208.12
2023-03-18T07:17:27.540Z,208.12
2023-03-18T07:18:27.542Z,213.75
2023-03-18T07:19:27.668Z,213.75
2023-03-18T07:20:27.513Z,213.75
2023-03-18T07:21:27.503Z,208.12
2023-03-18T07:22:27.507Z,202.50
2023-03-18T07:23:27.501Z,185.62
2023-03-18T07:24:27.519Z,180.00
2023-03-18T07:25:27.496Z,168.75
2023-03-18T07:26:27.496Z,151.88
2023-03-18T07:27:27.485Z,135.00
2023-03-18T07:28:27.427Z,129.38
2023-03-18T07:29:27.417Z,129.38
2023-03-18T07:30:27.427Z,123.75
2023-03-18T07:31:27.543Z,118.12
2023-03-18T07:32:27.392Z,135.00
2023-03-18T07:33:27.374Z,163.12
2023-03-18T07:34:27.356Z,185.62
2023-03-18T07:35:27.358Z,202.50
2023-03-18T07:36:27.356Z,208.12
2023-03-18T07:37:27.410Z,213.75
2023-03-18T07:38:27.317Z,219.38
2023-03-18T07:39:27.310Z,219.38
2023-03-18T07:40:27.289Z,230.62
2023-03-18T07:41:27.287Z,253.12
2023-03-18T07:42:27.300Z,281.25
2023-03-18T07:43:27.297Z,292.50
2023-03-18T07:44:27.241Z,303.75
2023-03-18T07:45:27.249Z,320.62
2023-03-18T07:46:27.288Z,354.38
2023-03-18T07:47:27.224Z,388.12
2023-03-18T07:48:27.209Z,405.00
2023-03-18T07:49:27.248Z,393.75
2023-03-18T07:50:27.204Z,331.88
2023-03-18T07:51:27.195Z,286.88
2023-03-18T07:52:27.175Z,247.50
2023-03-18T07:53:27.141Z,225.00
2023-03-18T07:54:27.202Z,208.12
2023-03-18T07:55:27.136Z,208.12
2023-03-18T07:56:27.124Z,208.12
2023-03-18T07:57:27.097Z,219.38
2023-03-18T07:58:27.100Z,241.88
2023-03-18T07:59:27.060Z,270.00
2023-03-18T08:00:27.159Z,315.00
2023-03-18T08:01:27.054Z,360.00
2023-03-18T08:02:27.031Z,393.75
2023-03-18T08:03:27.036Z,438.75
2023-03-18T08:04:27.235Z,483.75
2023-03-18T08:05:27.056Z,528.75
2023-03-18T08:06:27.002Z,585.00
2023-03-18T08:07:26.994Z,641.25
2023-03-18T08:08:27.000Z,703.12
2023-03-18T08:09:26.981Z,798.75
2023-03-18T08:10:26.985Z,888.75
2023-03-18T08:11:27.015Z,1350.00
2023-03-18T08:12:27.706Z,1400.62
2023-03-18T08:13:26.905Z,708.75
2023-03-18T08:14:26.896Z,613.12
2023-03-18T08:15:26.914Z,534.38
2023-03-18T08:16:26.903Z,511.88
2023-03-18T08:17:27.068Z,506.25
2023-03-18T08:18:26.869Z,500.62
2023-03-18T08:19:26.889Z,495.00
2023-03-18T08:20:26.862Z,551.25
2023-03-18T08:21:26.830Z,444.38
2023-03-18T08:22:26.830Z,450.00
2023-03-18T08:23:26.870Z,579.38
2023-03-18T08:24:26.777Z,483.75
2023-03-18T08:25:26.823Z,506.25
2023-03-18T08:26:26.781Z,551.25
2023-03-18T08:27:26.810Z,579.38
2023-03-18T08:28:26.738Z,618.75
2023-03-18T08:29:26.755Z,658.12
2023-03-18T08:30:26.738Z,697.50
2023-03-18T08:31:26.788Z,742.50
2023-03-18T08:32:26.723Z,1035.00
2023-03-18T08:33:26.761Z,1231.88
2023-03-18T08:34:26.691Z,1108.12
2023-03-18T08:35:26.714Z,1237.50
2023-03-18T08:36:26.662Z,973.12
2023-03-18T08:37:26.663Z,1282.50
2023-03-18T08:38:26.664Z,1344.38
2023-03-18T08:39:26.674Z,1293.75
2023-03-18T08:40:26.691Z,1350.00
2023-03-18T08:41:26.632Z,1766.25
2023-03-18T08:42:26.652Z,1816.88
2023-03-18T08:43:26.576Z,1507.50
2023-03-18T08:44:26.557Z,1833.75
2023-03-18T08:45:26.574Z,1760.62
2023-03-18T08:46:26.569Z,1749.38
2023-03-18T08:47:26.524Z,1710.00
2023-03-18T08:48:26.581Z,2002.50
2023-03-18T08:49:26.548Z,2143.12
2023-03-18T08:50:26.578Z,1906.88
2023-03-18T08:51:26.477Z,2373.75
2023-03-18T08:52:26.489Z,2131.88
2023-03-18T08:53:26.478Z,2103.75
2023-03-18T08:54:26.498Z,1631.25
2023-03-18T08:55:26.453Z,1856.25
2023-03-18T08:56:26.429Z,2013.75
2023-03-18T08:57:26.419Z,2041.88
2023-03-18T08:58:26.453Z,855.00
2023-03-18T08:59:26.465Z,1164.38
2023-03-18T09:00:26.488Z,849.38
2023-03-18T09:01:26.523Z,815.62
2023-03-18T09:02:26.371Z,1125.00
2023-03-18T09:03:26.461Z,624.38
2023-03-18T09:04:26.352Z,596.25
2023-03-18T09:05:26.426Z,545.62
2023-03-18T09:06:26.320Z,489.38
2023-03-18T09:07:26.314Z,472.50
2023-03-18T09:08:26.290Z,455.62
2023-03-18T09:09:40.868Z,433.12
2023-03-18T09:10:27.319Z,433.12
2023-03-18T09:11:26.299Z,427.50
2023-03-18T09:12:26.249Z,433.12
2023-03-18T09:13:26.261Z,421.88
2023-03-18T09:14:26.239Z,410.62
2023-03-18T09:15:26.217Z,393.75
2023-03-18T09:16:26.358Z,399.38
2023-03-18T09:17:40.242Z,393.75
2023-03-18T09:18:27.188Z,399.38
2023-03-18T09:19:26.192Z,399.38
2023-03-18T09:20:26.220Z,416.25
2023-03-18T09:21:26.189Z,427.50
2023-03-18T09:22:26.188Z,433.12
2023-03-18T09:23:26.118Z,416.25
2023-03-18T09:24:26.118Z,421.88
2023-03-18T09:25:26.121Z,433.12
2023-03-18T09:26:26.110Z,450.00
2023-03-18T09:27:26.130Z,489.38
2023-03-18T09:28:26.060Z,517.50
2023-03-18T09:29:26.069Z,534.38
2023-03-18T09:30:26.138Z,523.12
2023-03-18T09:31:26.048Z,511.88
2023-03-18T09:32:26.020Z,511.88
2023-03-18T09:33:26.083Z,511.88
2023-03-18T09:34:26.042Z,534.38
2023-03-18T09:35:25.991Z,573.75
2023-03-18T09:36:25.969Z,596.25
2023-03-18T09:37:25.970Z,596.25
2023-03-18T09:38:25.993Z,624.38
2023-03-18T09:39:26.021Z,658.12
2023-03-18T09:40:25.937Z,720.00
2023-03-18T09:41:25.941Z,781.88
2023-03-18T09:42:25.902Z,849.38
2023-03-18T09:43:25.898Z,1023.75
2023-03-18T09:44:25.940Z,866.25
2023-03-18T09:45:25.915Z,826.88
2023-03-18T09:46:25.978Z,810.00
2023-03-18T09:47:25.845Z,776.25
2023-03-18T09:48:25.878Z,810.00
2023-03-18T09:49:25.852Z,860.62
2023-03-18T09:50:25.876Z,894.38
2023-03-18T09:51:25.838Z,911.25
2023-03-18T09:52:25.819Z,956.25
2023-03-18T09:53:25.809Z,973.12
2023-03-18T09:54:25.765Z,1063.12
2023-03-18T09:55:25.765Z,1125.00
2023-03-18T09:56:25.789Z,978.75
2023-03-18T09:57:28.587Z,933.75
2023-03-18T09:58:25.788Z,928.12
2023-03-18T09:59:25.720Z,815.62
2023-03-18T10:00:25.723Z,753.75
2023-03-18T10:01:25.775Z,708.75
2023-03-18T10:02:25.743Z,708.75
2023-03-18T10:03:25.714Z,697.50
2023-03-18T10:04:25.698Z,658.12
2023-03-18T10:05:25.683Z,646.88
2023-03-18T10:06:25.684Z,635.62
2023-03-18T10:07:25.639Z,618.75
2023-03-18T10:08:25.655Z,624.38
2023-03-18T10:09:25.645Z,646.88
2023-03-18T10:10:25.614Z,663.75
2023-03-18T10:11:25.620Z,663.75
2023-03-18T10:12:25.627Z,641.25
2023-03-18T10:13:25.576Z,624.38
2023-03-18T10:14:25.596Z,618.75
2023-03-18T10:15:25.544Z,624.38
2023-03-18T10:16:25.572Z,635.62
2023-03-18T10:17:25.523Z,641.25
2023-03-18T10:18:25.498Z,613.12
2023-03-18T10:19:25.486Z,613.12
2023-03-18T10:20:25.584Z,618.75
2023-03-18T10:21:25.480Z,607.50
2023-03-18T10:22:25.457Z,613.12
2023-03-18T10:23:25.460Z,607.50
2023-03-18T10:24:25.465Z,596.25
2023-03-18T10:25:25.473Z,590.62
2023-03-18T10:26:25.450Z,573.75
2023-03-18T10:27:25.403Z,562.50
2023-03-18T10:28:25.403Z,556.88
2023-03-18T10:29:25.403Z,573.75
2023-03-18T10:30:25.383Z,601.88
2023-03-18T10:31:25.383Z,630.00
2023-03-18T10:32:29.284Z,658.12
2023-03-18T10:33:26.415Z,663.75
2023-03-18T10:34:25.320Z,663.75
2023-03-18T10:35:25.345Z,686.25
2023-03-18T10:36:25.302Z,720.00
2023-03-18T10:37:25.323Z,776.25
2023-03-18T10:38:25.312Z,770.62
2023-03-18T10:39:25.255Z,770.62
2023-03-18T10:40:25.313Z,804.38
2023-03-18T10:41:27.680Z,821.25
2023-03-18T10:42:25.252Z,832.50
2023-03-18T10:43:25.260Z,826.88
2023-03-18T10:44:25.219Z,855.00
2023-03-18T10:45:25.210Z,860.62
2023-03-18T10:46:25.286Z,916.88
2023-03-18T10:47:25.301Z,939.38
2023-03-18T10:48:25.180Z,933.75
2023-03-18T10:49:25.186Z,950.62
2023-03-18T10:50:25.164Z,961.88
2023-03-18T10:51:25.163Z,995.62
2023-03-18T10:52:25.159Z,1130.62
2023-03-18T10:53:25.117Z,1125.00
2023-03-18T10:54:25.101Z,1006.88
2023-03-18T10:55:25.125Z,1023.75
2023-03-18T10:56:25.115Z,922.50
2023-03-18T10:57:25.090Z,781.88
2023-03-18T10:58:25.104Z,748.12
2023-03-18T10:59:25.044Z,765.00
2023-03-18T11:00:25.091Z,748.12
2023-03-18T11:01:25.069Z,759.38
2023-03-18T11:02:25.042Z,781.88
2023-03-18T11:03:25.000Z,826.88
2023-03-18T11:04:25.027Z,849.38
2023-03-18T11:05:25.048Z,838.12
2023-03-18T11:06:24.996Z,810.00
2023-03-18T11:07:24.965Z,770.62
2023-03-18T11:08:24.976Z,731.25
2023-03-18T11:09:24.925Z,731.25
2023-03-18T11:10:24.988Z,708.75
2023-03-18T11:11:24.945Z,759.38
2023-03-18T11:12:24.918Z,770.62
2023-03-18T11:13:24.910Z,748.12
2023-03-18T11:14:24.879Z,714.38
2023-03-18T11:15:24.927Z,675.00
2023-03-18T11:16:24.887Z,691.88
2023-03-18T11:17:24.841Z,697.50
2023-03-18T11:18:24.855Z,725.62
2023-03-18T11:19:24.863Z,725.62
2023-03-18T11:20:24.849Z,714.38
2023-03-18T11:21:24.863Z,697.50
2023-03-18T11:22:24.796Z,675.00
2023-03-18T11:23:24.810Z,658.12
2023-03-18T11:24:24.781Z,652.50
2023-03-18T11:25:24.783Z,658.12
2023-03-18T11:26:24.759Z,697.50
2023-03-18T11:27:24.828Z,725.62
2023-03-18T11:28:24.746Z,742.50
2023-03-18T11:29:24.716Z,765.00
2023-03-18T11:30:34.082Z,787.50
2023-03-18T11:31:25.731Z,810.00
2023-03-18T11:32:24.692Z,855.00
2023-03-18T11:33:24.720Z,956.25
2023-03-18T11:34:24.676Z,1046.25
2023-03-18T11:35:24.715Z,1198.12
2023-03-18T11:36:24.657Z,1501.88
2023-03-18T11:37:25.901Z,2064.38
2023-03-18T11:38:24.622Z,4455.00
2023-03-18T11:39:24.612Z,4477.50
2023-03-18T11:40:24.582Z,4471.88
2023-03-18T11:41:24.601Z,4522.50
2023-03-18T11:42:24.559Z,4511.25
2023-03-18T11:43:24.606Z,4410.00
2023-03-18T11:44:24.552Z,4201.88
2023-03-18T11:45:24.557Z,3830.62
2023-03-18T11:46:24.600Z,3712.50
2023-03-18T11:47:24.513Z,3898.12
2023-03-18T11:48:24.490Z,3982.50
2023-03-18T11:49:24.476Z,3999.38
2023-03-18T11:50:24.487Z,4033.12
2023-03-18T11:51:27.029Z,3875.62
2023-03-18T11:52:24.489Z,2317.50
2023-03-18T11:53:24.436Z,2401.88
2023-03-18T11:54:24.439Z,3825.00
2023-03-18T11:55:24.448Z,3948.75
2023-03-18T11:56:24.419Z,3836.25
2023-03-18T11:57:24.406Z,3729.38
2023-03-18T11:58:24.436Z,3690.00
2023-03-18T11:59:24.375Z,3881.25
2023-03-18T12:00:24.380Z,770.62
2023-03-18T12:01:24.375Z,731.25
2023-03-18T12:02:24.405Z,871.88
2023-03-18T12:03:24.450Z,3251.25
2023-03-18T12:04:24.335Z,596.25
2023-03-18T12:05:24.415Z,821.25
2023-03-18T12:06:24.318Z,3633.75
2023-03-18T12:07:24.307Z,2525.62
2023-03-18T12:08:24.281Z,2975.62
2023-03-18T12:09:24.371Z,2216.25
2023-03-18T12:10:24.321Z,3425.62
2023-03-18T12:11:24.239Z,3425.62
2023-03-18T12:12:24.243Z,3369.38
2023-03-18T12:13:24.263Z,2047.50
2023-03-18T12:14:24.223Z,3532.50
2023-03-18T12:15:24.264Z,3521.25
2023-03-18T12:16:24.371Z,1980.00
2023-03-18T12:17:24.222Z,2227.50
2023-03-18T12:18:24.309Z,1603.12
2023-03-18T12:19:24.213Z,1839.38
2023-03-18T12:20:24.151Z,900.00
2023-03-18T12:21:24.183Z,900.00
2023-03-18T12:22:24.154Z,787.50
2023-03-18T12:23:24.122Z,708.75
2023-03-18T12:24:24.152Z,928.12
2023-03-18T12:25:24.096Z,2840.62
2023-03-18T12:26:24.107Z,3425.62
2023-03-18T12:27:24.145Z,3116.25
2023-03-18T12:28:24.079Z,3138.75
2023-03-18T12:29:24.057Z,3110.62
2023-03-18T12:30:24.099Z,838.12
2023-03-18T12:31:24.143Z,765.00
2023-03-18T12:32:24.056Z,675.00
2023-03-18T12:33:24.051Z,680.62
2023-03-18T12:34:24.022Z,3144.38
2023-03-18T12:35:24.061Z,3093.75
2023-03-18T12:36:24.000Z,2143.12
2023-03-18T12:37:24.004Z,911.25
2023-03-18T12:38:23.971Z,680.62
2023-03-18T12:39:24.014Z,635.62
2023-03-18T12:40:23.980Z,579.38
2023-03-18T12:41:23.950Z,523.12
2023-03-18T12:42:23.940Z,483.75
2023-03-18T12:43:23.947Z,461.25
2023-03-18T12:44:23.940Z,438.75
2023-03-18T12:45:23.955Z,421.88
2023-03-18T12:46:23.949Z,410.62
2023-03-18T12:47:23.899Z,393.75